sensor_id;sensor_type;location;lat;lon;timestamp;temperature;humidity
15355;DHT22;7777;52.254;9.618;2022-07-11T00:00:13;17.00;95.90
15355;DHT22;7777;52.254;9.618;2022-07-11T00:02:42;17.00;95.80
15355;DHT22;7777;52.254;9.618;2022-07-11T00:05:09;17.00;95.90
15355;DHT22;7777;52.254;9.618;2022-07-11T00:07:35;17.00;95.80
15355;DHT22;7777;52.254;9.618;2022-07-11T00:10:03;16.90;96.00
15355;DHT22;7777;52.254;9.618;2022-07-11T00:12:29;16.90;95.80
15355;DHT22;7777;52.254;9.618;2022-07-11T00:14:55;16.90;96.00
15355;DHT22;7777;52.254;9.618;2022-07-11T00:17:22;16.90;96.00
15355;DHT22;7777;52.254;9.618;2022-07-11T00:19:48;16.90;96.30
15355;DHT22;7777;52.254;9.618;2022-07-11T00:22:14;16.90;95.90
15355;DHT22;7777;52.254;9.618;2022-07-11T00:24:40;16.90;96.10
15355;DHT22;7777;52.254;9.618;2022-07-11T00:27:06;16.80;96.00
15355;DHT22;7777;52.254;9.618;2022-07-11T00:29:32;16.90;95.90
15355;DHT22;7777;52.254;9.618;2022-07-11T00:31:58;16.90;96.00
15355;DHT22;7777;52.254;9.618;2022-07-11T00:34:25;16.80;96.00
15355;DHT22;7777;52.254;9.618;2022-07-11T00:36:51;16.80;95.90
15355;DHT22;7777;52.254;9.618;2022-07-11T00:39:17;16.80;96.20
15355;DHT22;7777;52.254;9.618;2022-07-11T00:41:43;16.80;96.20
15355;DHT22;7777;52.254;9.618;2022-07-11T00:44:09;16.80;95.90
15355;DHT22;7777;52.254;9.618;2022-07-11T00:46:35;16.80;96.10
15355;DHT22;7777;52.254;9.618;2022-07-11T00:49:01;16.80;96.10
15355;DHT22;7777;52.254;9.618;2022-07-11T00:51:27;16.80;96.20
15355;DHT22;7777;52.254;9.618;2022-07-11T00:53:56;16.80;96.30
15355;DHT22;7777;52.254;9.618;2022-07-11T00:56:25;16.80;96.20
15355;DHT22;7777;52.254;9.618;2022-07-11T00:58:53;16.70;96.00
15355;DHT22;7777;52.254;9.618;2022-07-11T01:01:21;16.70;96.30
15355;DHT22;7777;52.254;9.618;2022-07-11T01:03:48;16.70;96.40
15355;DHT22;7777;52.254;9.618;2022-07-11T01:06:14;16.70;96.20
15355;DHT22;7777;52.254;9.618;2022-07-11T01:08:41;16.70;96.10
15355;DHT22;7777;52.254;9.618;2022-07-11T01:11:11;16.70;96.40
15355;DHT22;7777;52.254;9.618;2022-07-11T01:13:41;16.70;96.60
15355;DHT22;7777;52.254;9.618;2022-07-11T01:16:11;16.70;96.20
15355;DHT22;7777;52.254;9.618;2022-07-11T01:18:40;16.70;96.20
15355;DHT22;7777;52.254;9.618;2022-07-11T01:21:32;16.70;96.40
15355;DHT22;7777;52.254;9.618;2022-07-11T01:24:02;16.70;96.50
15355;DHT22;7777;52.254;9.618;2022-07-11T01:26:29;16.70;96.30
15355;DHT22;7777;52.254;9.618;2022-07-11T01:29:05;16.70;96.50
15355;DHT22;7777;52.254;9.618;2022-07-11T01:31:32;16.60;96.70
15355;DHT22;7777;52.254;9.618;2022-07-11T01:33:58;16.60;96.60
15355;DHT22;7777;52.254;9.618;2022-07-11T01:36:24;16.60;96.20
15355;DHT22;7777;52.254;9.618;2022-07-11T01:38:50;16.60;96.70
15355;DHT22;7777;52.254;9.618;2022-07-11T01:41:15;16.60;96.40
15355;DHT22;7777;52.254;9.618;2022-07-11T01:43:41;16.60;96.50
15355;DHT22;7777;52.254;9.618;2022-07-11T01:46:07;16.60;96.30
15355;DHT22;7777;52.254;9.618;2022-07-11T01:48:33;16.60;96.50
15355;DHT22;7777;52.254;9.618;2022-07-11T01:50:58;16.60;96.40
15355;DHT22;7777;52.254;9.618;2022-07-11T01:53:24;16.60;96.70
15355;DHT22;7777;52.254;9.618;2022-07-11T01:55:50;16.60;96.40
15355;DHT22;7777;52.254;9.618;2022-07-11T01:58:16;16.60;96.60
15355;DHT22;7777;52.254;9.618;2022-07-11T02:00:42;16.60;96.60
15355;DHT22;7777;52.254;9.618;2022-07-11T02:03:08;16.60;96.70
15355;DHT22;7777;52.254;9.618;2022-07-11T02:05:34;16.60;96.60
15355;DHT22;7777;52.254;9.618;2022-07-11T02:08:00;16.50;96.60
15355;DHT22;7777;52.254;9.618;2022-07-11T02:10:50;16.60;96.60
15355;DHT22;7777;52.254;9.618;2022-07-11T02:13:18;16.50;96.70
15355;DHT22;7777;52.254;9.618;2022-07-11T02:15:45;16.50;96.80
15355;DHT22;7777;52.254;9.618;2022-07-11T02:18:13;16.50;96.90
15355;DHT22;7777;52.254;9.618;2022-07-11T02:20:40;16.50;96.80
15355;DHT22;7777;52.254;9.618;2022-07-11T02:23:07;16.40;96.60
15355;DHT22;7777;52.254;9.618;2022-07-11T02:25:34;16.40;96.70
15355;DHT22;7777;52.254;9.618;2022-07-11T02:28:07;16.40;96.80
15355;DHT22;7777;52.254;9.618;2022-07-11T02:30:41;16.40;96.90
15355;DHT22;7777;52.254;9.618;2022-07-11T02:33:08;16.40;96.70
15355;DHT22;7777;52.254;9.618;2022-07-11T02:35:36;16.40;96.60
15355;DHT22;7777;52.254;9.618;2022-07-11T02:38:02;16.40;96.70
15355;DHT22;7777;52.254;9.618;2022-07-11T02:40:28;16.40;96.60
15355;DHT22;7777;52.254;9.618;2022-07-11T02:42:54;16.40;96.90
15355;DHT22;7777;52.254;9.618;2022-07-11T02:45:20;16.40;96.80
15355;DHT22;7777;52.254;9.618;2022-07-11T02:47:46;16.40;96.90
15355;DHT22;7777;52.254;9.618;2022-07-11T02:50:13;16.40;96.70
15355;DHT22;7777;52.254;9.618;2022-07-11T02:52:40;16.40;96.70
15355;DHT22;7777;52.254;9.618;2022-07-11T02:55:09;16.40;96.90
15355;DHT22;7777;52.254;9.618;2022-07-11T02:57:36;16.40;96.80
15355;DHT22;7777;52.254;9.618;2022-07-11T03:00:14;16.40;97.10
15355;DHT22;7777;52.254;9.618;2022-07-11T03:02:41;16.40;96.80
15355;DHT22;7777;52.254;9.618;2022-07-11T03:05:08;16.40;97.10
15355;DHT22;7777;52.254;9.618;2022-07-11T03:07:34;16.40;97.00
15355;DHT22;7777;52.254;9.618;2022-07-11T03:10:00;16.40;97.10
15355;DHT22;7777;52.254;9.618;2022-07-11T03:12:26;16.40;97.10
15355;DHT22;7777;52.254;9.618;2022-07-11T03:14:52;16.40;96.90
15355;DHT22;7777;52.254;9.618;2022-07-11T03:17:19;16.40;97.00
15355;DHT22;7777;52.254;9.618;2022-07-11T03:19:45;16.40;97.00
15355;DHT22;7777;52.254;9.618;2022-07-11T03:22:12;16.40;97.00
15355;DHT22;7777;52.254;9.618;2022-07-11T03:24:38;16.40;97.10
15355;DHT22;7777;52.254;9.618;2022-07-11T03:27:06;16.40;97.10
15355;DHT22;7777;52.254;9.618;2022-07-11T03:29:32;16.50;97.00
15355;DHT22;7777;52.254;9.618;2022-07-11T03:31:59;16.50;97.10
15355;DHT22;7777;52.254;9.618;2022-07-11T03:34:25;16.40;97.20
15355;DHT22;7777;52.254;9.618;2022-07-11T03:36:51;16.40;97.40
15355;DHT22;7777;52.254;9.618;2022-07-11T03:39:16;16.40;97.50
15355;DHT22;7777;52.254;9.618;2022-07-11T03:41:42;16.50;97.40
15355;DHT22;7777;52.254;9.618;2022-07-11T03:44:09;16.50;97.70
15355;DHT22;7777;52.254;9.618;2022-07-11T03:46:35;16.40;97.50
15355;DHT22;7777;52.254;9.618;2022-07-11T03:49:04;16.50;97.50
15355;DHT22;7777;52.254;9.618;2022-07-11T03:51:30;16.50;97.40
15355;DHT22;7777;52.254;9.618;2022-07-11T03:53:55;16.50;97.80
15355;DHT22;7777;52.254;9.618;2022-07-11T03:56:22;16.50;97.30
15355;DHT22;7777;52.254;9.618;2022-07-11T03:58:51;16.50;97.40
15355;DHT22;7777;52.254;9.618;2022-07-11T04:01:17;16.60;97.60
15355;DHT22;7777;52.254;9.618;2022-07-11T04:03:45;16.60;97.50
15355;DHT22;7777;52.254;9.618;2022-07-11T04:06:12;16.60;97.70
15355;DHT22;7777;52.254;9.618;2022-07-11T04:08:38;16.60;97.50
15355;DHT22;7777;52.254;9.618;2022-07-11T04:11:05;16.60;97.50
15355;DHT22;7777;52.254;9.618;2022-07-11T04:13:30;16.60;97.70
15355;DHT22;7777;52.254;9.618;2022-07-11T04:15:56;16.60;97.70
15355;DHT22;7777;52.254;9.618;2022-07-11T04:18:23;16.60;97.60
15355;DHT22;7777;52.254;9.618;2022-07-11T04:20:49;16.60;97.50
15355;DHT22;7777;52.254;9.618;2022-07-11T04:23:15;16.60;97.50
15355;DHT22;7777;52.254;9.618;2022-07-11T04:25:42;16.60;97.80
15355;DHT22;7777;52.254;9.618;2022-07-11T04:28:08;16.60;97.60
15355;DHT22;7777;52.254;9.618;2022-07-11T04:30:33;16.60;97.80
15355;DHT22;7777;52.254;9.618;2022-07-11T04:33:00;16.60;97.90
15355;DHT22;7777;52.254;9.618;2022-07-11T04:35:26;16.60;98.20
15355;DHT22;7777;52.254;9.618;2022-07-11T04:37:56;16.70;98.20
15355;DHT22;7777;52.254;9.618;2022-07-11T04:40:21;16.60;98.20
15355;DHT22;7777;52.254;9.618;2022-07-11T04:42:49;16.60;98.20
15355;DHT22;7777;52.254;9.618;2022-07-11T04:45:16;16.70;98.80
15355;DHT22;7777;52.254;9.618;2022-07-11T04:47:42;16.70;98.60
15355;DHT22;7777;52.254;9.618;2022-07-11T04:50:08;16.70;98.60
15355;DHT22;7777;52.254;9.618;2022-07-11T04:52:34;16.60;98.50
15355;DHT22;7777;52.254;9.618;2022-07-11T04:55:00;16.70;98.50
15355;DHT22;7777;52.254;9.618;2022-07-11T04:57:26;16.70;98.40
15355;DHT22;7777;52.254;9.618;2022-07-11T04:59:52;16.70;98.90
15355;DHT22;7777;52.254;9.618;2022-07-11T05:02:18;16.70;98.80
15355;DHT22;7777;52.254;9.618;2022-07-11T05:04:44;16.70;98.90
15355;DHT22;7777;52.254;9.618;2022-07-11T05:07:11;16.70;99.00
15355;DHT22;7777;52.254;9.618;2022-07-11T05:09:39;16.70;98.80
15355;DHT22;7777;52.254;9.618;2022-07-11T05:12:06;16.70;99.10
15355;DHT22;7777;52.254;9.618;2022-07-11T05:14:32;16.70;99.70
15355;DHT22;7777;52.254;9.618;2022-07-11T05:16:58;16.70;99.50
15355;DHT22;7777;52.254;9.618;2022-07-11T05:19:24;16.70;99.90
15355;DHT22;7777;52.254;9.618;2022-07-11T05:21:49;16.70;99.50
15355;DHT22;7777;52.254;9.618;2022-07-11T05:24:15;16.70;99.40
15355;DHT22;7777;52.254;9.618;2022-07-11T05:26:43;16.70;99.50
15355;DHT22;7777;52.254;9.618;2022-07-11T05:29:10;16.70;99.60
15355;DHT22;7777;52.254;9.618;2022-07-11T05:31:36;16.70;99.60
15355;DHT22;7777;52.254;9.618;2022-07-11T05:34:02;16.70;99.60
15355;DHT22;7777;52.254;9.618;2022-07-11T05:36:28;16.70;99.40
15355;DHT22;7777;52.254;9.618;2022-07-11T05:38:53;16.70;99.50
15355;DHT22;7777;52.254;9.618;2022-07-11T05:41:19;16.70;99.40
15355;DHT22;7777;52.254;9.618;2022-07-11T05:43:45;16.70;99.60
15355;DHT22;7777;52.254;9.618;2022-07-11T05:46:11;16.80;99.50
15355;DHT22;7777;52.254;9.618;2022-07-11T05:48:37;16.70;99.40
15355;DHT22;7777;52.254;9.618;2022-07-11T05:51:03;16.80;99.30
15355;DHT22;7777;52.254;9.618;2022-07-11T05:53:28;16.70;99.70
15355;DHT22;7777;52.254;9.618;2022-07-11T05:55:54;16.80;99.50
15355;DHT22;7777;52.254;9.618;2022-07-11T05:58:20;16.80;99.40
15355;DHT22;7777;52.254;9.618;2022-07-11T06:00:46;16.90;99.50
15355;DHT22;7777;52.254;9.618;2022-07-11T06:03:12;16.90;99.50
15355;DHT22;7777;52.254;9.618;2022-07-11T06:05:38;16.90;99.50
15355;DHT22;7777;52.254;9.618;2022-07-11T06:08:04;16.90;99.40
15355;DHT22;7777;52.254;9.618;2022-07-11T06:10:49;17.00;99.60
15355;DHT22;7777;52.254;9.618;2022-07-11T06:13:14;17.00;99.40
15355;DHT22;7777;52.254;9.618;2022-07-11T06:15:40;17.00;99.40
15355;DHT22;7777;52.254;9.618;2022-07-11T06:18:06;17.00;99.20
15355;DHT22;7777;52.254;9.618;2022-07-11T06:20:32;17.10;99.30
15355;DHT22;7777;52.254;9.618;2022-07-11T06:22:58;17.10;99.20
15355;DHT22;7777;52.254;9.618;2022-07-11T06:25:24;17.10;99.20
15355;DHT22;7777;52.254;9.618;2022-07-11T06:27:49;17.10;99.20
15355;DHT22;7777;52.254;9.618;2022-07-11T06:30:15;17.20;99.10
15355;DHT22;7777;52.254;9.618;2022-07-11T06:32:41;17.20;99.20
15355;DHT22;7777;52.254;9.618;2022-07-11T06:35:07;17.20;99.10
15355;DHT22;7777;52.254;9.618;2022-07-11T06:37:33;17.30;99.20
15355;DHT22;7777;52.254;9.618;2022-07-11T06:39:59;17.40;99.10
15355;DHT22;7777;52.254;9.618;2022-07-11T06:42:25;17.40;99.10
15355;DHT22;7777;52.254;9.618;2022-07-11T06:44:51;17.40;99.00
15355;DHT22;7777;52.254;9.618;2022-07-11T06:47:17;17.50;99.00
15355;DHT22;7777;52.254;9.618;2022-07-11T06:49:43;17.50;98.90
15355;DHT22;7777;52.254;9.618;2022-07-11T06:52:09;17.60;99.00
15355;DHT22;7777;52.254;9.618;2022-07-11T06:54:35;17.60;98.90
15355;DHT22;7777;52.254;9.618;2022-07-11T06:57:01;17.60;98.80
15355;DHT22;7777;52.254;9.618;2022-07-11T06:59:26;17.60;98.80
15355;DHT22;7777;52.254;9.618;2022-07-11T07:01:52;17.70;98.80
15355;DHT22;7777;52.254;9.618;2022-07-11T07:04:18;17.70;98.70
15355;DHT22;7777;52.254;9.618;2022-07-11T07:06:44;17.70;98.60
15355;DHT22;7777;52.254;9.618;2022-07-11T07:09:09;17.70;98.60
15355;DHT22;7777;52.254;9.618;2022-07-11T07:11:35;17.80;98.90
15355;DHT22;7777;52.254;9.618;2022-07-11T07:14:01;17.80;98.70
15355;DHT22;7777;52.254;9.618;2022-07-11T07:16:26;17.80;98.60
15355;DHT22;7777;52.254;9.618;2022-07-11T07:18:52;17.90;98.70
15355;DHT22;7777;52.254;9.618;2022-07-11T07:21:18;17.90;98.90
15355;DHT22;7777;52.254;9.618;2022-07-11T07:23:44;18.00;98.70
15355;DHT22;7777;52.254;9.618;2022-07-11T07:26:10;18.00;98.80
15355;DHT22;7777;52.254;9.618;2022-07-11T07:28:35;18.10;98.80
15355;DHT22;7777;52.254;9.618;2022-07-11T07:31:03;18.10;98.70
15355;DHT22;7777;52.254;9.618;2022-07-11T07:33:29;18.10;98.70
15355;DHT22;7777;52.254;9.618;2022-07-11T07:35:55;18.10;98.70
15355;DHT22;7777;52.254;9.618;2022-07-11T07:38:21;18.20;98.70
15355;DHT22;7777;52.254;9.618;2022-07-11T07:40:47;18.20;98.50
15355;DHT22;7777;52.254;9.618;2022-07-11T07:43:13;18.20;98.50
15355;DHT22;7777;52.254;9.618;2022-07-11T07:45:38;18.20;98.50
15355;DHT22;7777;52.254;9.618;2022-07-11T07:48:04;18.30;98.50
15355;DHT22;7777;52.254;9.618;2022-07-11T07:50:30;18.30;98.40
15355;DHT22;7777;52.254;9.618;2022-07-11T07:52:56;18.30;98.40
15355;DHT22;7777;52.254;9.618;2022-07-11T07:55:22;18.30;98.30
15355;DHT22;7777;52.254;9.618;2022-07-11T07:57:47;18.30;98.30
15355;DHT22;7777;52.254;9.618;2022-07-11T08:00:13;18.40;98.30
15355;DHT22;7777;52.254;9.618;2022-07-11T08:03:06;18.40;98.30
15355;DHT22;7777;52.254;9.618;2022-07-11T08:05:33;18.40;98.00
15355;DHT22;7777;52.254;9.618;2022-07-11T08:07:59;18.40;97.90
15355;DHT22;7777;52.254;9.618;2022-07-11T08:10:25;18.40;97.80
15355;DHT22;7777;52.254;9.618;2022-07-11T08:12:51;18.40;97.80
15355;DHT22;7777;52.254;9.618;2022-07-11T08:15:17;18.40;97.70
15355;DHT22;7777;52.254;9.618;2022-07-11T08:17:42;18.40;97.70
15355;DHT22;7777;52.254;9.618;2022-07-11T08:20:09;18.50;97.60
15355;DHT22;7777;52.254;9.618;2022-07-11T08:22:35;18.50;97.60
15355;DHT22;7777;52.254;9.618;2022-07-11T08:25:00;18.50;97.50
15355;DHT22;7777;52.254;9.618;2022-07-11T08:27:26;18.50;97.40
15355;DHT22;7777;52.254;9.618;2022-07-11T08:29:52;18.50;97.30
15355;DHT22;7777;52.254;9.618;2022-07-11T08:32:18;18.50;97.20
15355;DHT22;7777;52.254;9.618;2022-07-11T08:34:47;18.50;97.20
15355;DHT22;7777;52.254;9.618;2022-07-11T08:37:12;18.50;97.20
15355;DHT22;7777;52.254;9.618;2022-07-11T08:39:38;18.50;97.30
15355;DHT22;7777;52.254;9.618;2022-07-11T08:42:04;18.50;97.40
15355;DHT22;7777;52.254;9.618;2022-07-11T08:44:30;18.50;97.40
15355;DHT22;7777;52.254;9.618;2022-07-11T08:46:56;18.50;97.40
15355;DHT22;7777;52.254;9.618;2022-07-11T08:49:22;18.50;97.50
15355;DHT22;7777;52.254;9.618;2022-07-11T08:51:48;18.50;97.60
15355;DHT22;7777;52.254;9.618;2022-07-11T08:54:14;18.50;97.70
15355;DHT22;7777;52.254;9.618;2022-07-11T08:56:43;18.50;97.70
15355;DHT22;7777;52.254;9.618;2022-07-11T08:59:12;18.50;97.80
15355;DHT22;7777;52.254;9.618;2022-07-11T09:01:41;18.40;98.00
15355;DHT22;7777;52.254;9.618;2022-07-11T09:04:09;18.40;98.20
15355;DHT22;7777;52.254;9.618;2022-07-11T09:06:35;18.40;98.20
15355;DHT22;7777;52.254;9.618;2022-07-11T09:09:01;18.30;98.40
15355;DHT22;7777;52.254;9.618;2022-07-11T09:11:28;18.30;98.20
15355;DHT22;7777;52.254;9.618;2022-07-11T09:13:54;18.40;98.20
15355;DHT22;7777;52.254;9.618;2022-07-11T09:16:20;18.40;98.60
15355;DHT22;7777;52.254;9.618;2022-07-11T09:18:46;18.40;98.50
15355;DHT22;7777;52.254;9.618;2022-07-11T09:21:15;18.50;98.50
15355;DHT22;7777;52.254;9.618;2022-07-11T09:24:02;18.50;98.80
15355;DHT22;7777;52.254;9.618;2022-07-11T09:26:50;18.40;99.00
15355;DHT22;7777;52.254;9.618;2022-07-11T09:31:50;18.50;98.90
15355;DHT22;7777;52.254;9.618;2022-07-11T09:34:18;18.50;98.90
15355;DHT22;7777;52.254;9.618;2022-07-11T09:36:51;18.60;98.80
15355;DHT22;7777;52.254;9.618;2022-07-11T09:39:25;18.60;98.80
15355;DHT22;7777;52.254;9.618;2022-07-11T09:41:52;18.70;98.90
15355;DHT22;7777;52.254;9.618;2022-07-11T09:44:22;18.70;98.80
15355;DHT22;7777;52.254;9.618;2022-07-11T09:46:51;18.80;98.70
15355;DHT22;7777;52.254;9.618;2022-07-11T09:49:33;18.80;98.70
15355;DHT22;7777;52.254;9.618;2022-07-11T09:52:11;18.90;98.70
15355;DHT22;7777;52.254;9.618;2022-07-11T09:54:54;18.90;98.60
15355;DHT22;7777;52.254;9.618;2022-07-11T09:59:57;19.10;98.90
15355;DHT22;7777;52.254;9.618;2022-07-11T10:02:24;19.10;98.70
15355;DHT22;7777;52.254;9.618;2022-07-11T10:04:50;19.30;98.80
15355;DHT22;7777;52.254;9.618;2022-07-11T10:07:16;19.40;98.90
15355;DHT22;7777;52.254;9.618;2022-07-11T10:09:41;19.50;98.70
15355;DHT22;7777;52.254;9.618;2022-07-11T10:12:07;19.60;98.80
15355;DHT22;7777;52.254;9.618;2022-07-11T10:14:36;19.70;98.80
15355;DHT22;7777;52.254;9.618;2022-07-11T10:17:25;19.70;98.60
15355;DHT22;7777;52.254;9.618;2022-07-11T10:20:07;19.80;98.40
15355;DHT22;7777;52.254;9.618;2022-07-11T10:25:37;20.00;98.40
15355;DHT22;7777;52.254;9.618;2022-07-11T10:31:23;20.20;98.50
15355;DHT22;7777;52.254;9.618;2022-07-11T10:34:04;20.20;98.40
15355;DHT22;7777;52.254;9.618;2022-07-11T10:36:46;20.30;98.40
15355;DHT22;7777;52.254;9.618;2022-07-11T10:41:43;20.40;98.50
15355;DHT22;7777;52.254;9.618;2022-07-11T10:44:10;20.50;98.60
15355;DHT22;7777;52.254;9.618;2022-07-11T10:46:36;20.60;98.40
15355;DHT22;7777;52.254;9.618;2022-07-11T11:00:05;20.90;98.30
15355;DHT22;7777;52.254;9.618;2022-07-11T11:05:50;20.90;97.80
15355;DHT22;7777;52.254;9.618;2022-07-11T11:11:07;21.00;97.90
15355;DHT22;7777;52.254;9.618;2022-07-11T11:14:33;21.00;97.80
15355;DHT22;7777;52.254;9.618;2022-07-11T11:17:34;21.00;97.80
15355;DHT22;7777;52.254;9.618;2022-07-11T11:20:01;21.00;97.40
15355;DHT22;7777;52.254;9.618;2022-07-11T11:22:29;21.00;97.60
15355;DHT22;7777;52.254;9.618;2022-07-11T11:24:56;21.00;97.60
15355;DHT22;7777;52.254;9.618;2022-07-11T11:27:24;21.00;97.70
15355;DHT22;7777;52.254;9.618;2022-07-11T11:29:53;21.00;97.80
15355;DHT22;7777;52.254;9.618;2022-07-11T11:32:21;21.00;97.70
15355;DHT22;7777;52.254;9.618;2022-07-11T11:34:48;21.00;97.80
15355;DHT22;7777;52.254;9.618;2022-07-11T11:37:16;21.10;97.70
15355;DHT22;7777;52.254;9.618;2022-07-11T11:39:42;21.10;97.50
15355;DHT22;7777;52.254;9.618;2022-07-11T11:42:13;21.10;97.80
15355;DHT22;7777;52.254;9.618;2022-07-11T11:44:52;21.20;97.70
15355;DHT22;7777;52.254;9.618;2022-07-11T11:47:19;21.20;97.60
15355;DHT22;7777;52.254;9.618;2022-07-11T11:49:46;21.20;97.60
15355;DHT22;7777;52.254;9.618;2022-07-11T11:52:13;21.20;97.70
15355;DHT22;7777;52.254;9.618;2022-07-11T11:54:39;21.20;97.50
15355;DHT22;7777;52.254;9.618;2022-07-11T11:57:08;21.20;97.40
15355;DHT22;7777;52.254;9.618;2022-07-11T11:59:37;21.20;97.50
15355;DHT22;7777;52.254;9.618;2022-07-11T12:02:04;21.20;97.40
15355;DHT22;7777;52.254;9.618;2022-07-11T12:04:31;21.20;97.40
15355;DHT22;7777;52.254;9.618;2022-07-11T12:06:59;21.20;97.40
15355;DHT22;7777;52.254;9.618;2022-07-11T12:09:27;21.20;97.40
15355;DHT22;7777;52.254;9.618;2022-07-11T12:12:12;21.10;97.40
15355;DHT22;7777;52.254;9.618;2022-07-11T12:15:01;21.00;98.00
15355;DHT22;7777;52.254;9.618;2022-07-11T12:17:27;21.00;98.30
15355;DHT22;7777;52.254;9.618;2022-07-11T12:19:55;20.90;98.50
15355;DHT22;7777;52.254;9.618;2022-07-11T12:22:21;20.90;98.70
15355;DHT22;7777;52.254;9.618;2022-07-11T12:24:50;20.80;98.70
15355;DHT22;7777;52.254;9.618;2022-07-11T12:27:25;20.70;98.90
15355;DHT22;7777;52.254;9.618;2022-07-11T12:29:51;20.60;98.90
15355;DHT22;7777;52.254;9.618;2022-07-11T12:32:18;20.60;99.20
15355;DHT22;7777;52.254;9.618;2022-07-11T12:34:47;20.50;99.20
15355;DHT22;7777;52.254;9.618;2022-07-11T12:37:19;20.50;99.50
15355;DHT22;7777;52.254;9.618;2022-07-11T12:39:51;20.40;99.60
15355;DHT22;7777;52.254;9.618;2022-07-11T12:42:31;20.50;99.40
15355;DHT22;7777;52.254;9.618;2022-07-11T12:47:47;20.50;99.60
15355;DHT22;7777;52.254;9.618;2022-07-11T12:52:50;20.50;99.50
15355;DHT22;7777;52.254;9.618;2022-07-11T12:58:05;20.40;99.50
15355;DHT22;7777;52.254;9.618;2022-07-11T13:00:58;20.40;99.70
15355;DHT22;7777;52.254;9.618;2022-07-11T13:03:32;20.30;99.80
15355;DHT22;7777;52.254;9.618;2022-07-11T13:06:00;20.30;99.90
15355;DHT22;7777;52.254;9.618;2022-07-11T13:08:32;20.30;99.90
15355;DHT22;7777;52.254;9.618;2022-07-11T13:11:18;20.30;99.90
15355;DHT22;7777;52.254;9.618;2022-07-11T13:13:46;20.20;99.90
15355;DHT22;7777;52.254;9.618;2022-07-11T13:16:14;20.20;99.90
15355;DHT22;7777;52.254;9.618;2022-07-11T13:18:43;20.20;99.90
15355;DHT22;7777;52.254;9.618;2022-07-11T13:21:12;20.20;99.90
15355;DHT22;7777;52.254;9.618;2022-07-11T13:23:39;20.20;99.90
15355;DHT22;7777;52.254;9.618;2022-07-11T13:26:08;20.10;99.90
15355;DHT22;7777;52.254;9.618;2022-07-11T13:28:36;20.10;99.90
15355;DHT22;7777;52.254;9.618;2022-07-11T13:31:02;20.10;99.90
15355;DHT22;7777;52.254;9.618;2022-07-11T13:33:31;20.20;99.90
15355;DHT22;7777;52.254;9.618;2022-07-11T13:35:57;20.20;99.90
15355;DHT22;7777;52.254;9.618;2022-07-11T13:38:23;20.20;99.90
15355;DHT22;7777;52.254;9.618;2022-07-11T13:40:49;20.20;99.90
15355;DHT22;7777;52.254;9.618;2022-07-11T13:43:16;20.20;99.90
15355;DHT22;7777;52.254;9.618;2022-07-11T13:45:42;20.20;99.90
15355;DHT22;7777;52.254;9.618;2022-07-11T13:48:10;20.20;99.90
15355;DHT22;7777;52.254;9.618;2022-07-11T13:50:37;20.20;99.90
15355;DHT22;7777;52.254;9.618;2022-07-11T13:53:03;20.20;99.90
15355;DHT22;7777;52.254;9.618;2022-07-11T13:55:28;20.10;99.90
15355;DHT22;7777;52.254;9.618;2022-07-11T13:57:56;20.10;99.90
15355;DHT22;7777;52.254;9.618;2022-07-11T14:00:23;20.10;99.90
15355;DHT22;7777;52.254;9.618;2022-07-11T14:02:52;20.10;99.90
15355;DHT22;7777;52.254;9.618;2022-07-11T14:05:18;20.10;99.90
15355;DHT22;7777;52.254;9.618;2022-07-11T14:07:44;20.10;99.90
15355;DHT22;7777;52.254;9.618;2022-07-11T14:10:11;20.10;99.90
15355;DHT22;7777;52.254;9.618;2022-07-11T14:12:37;20.10;99.90
15355;DHT22;7777;52.254;9.618;2022-07-11T14:15:03;20.10;99.90
15355;DHT22;7777;52.254;9.618;2022-07-11T14:17:30;20.10;99.90
15355;DHT22;7777;52.254;9.618;2022-07-11T14:19:55;20.10;99.90
15355;DHT22;7777;52.254;9.618;2022-07-11T14:22:23;20.20;99.90
15355;DHT22;7777;52.254;9.618;2022-07-11T14:24:49;20.20;99.90
15355;DHT22;7777;52.254;9.618;2022-07-11T14:27:15;20.20;99.90
15355;DHT22;7777;52.254;9.618;2022-07-11T14:29:44;20.30;99.90
15355;DHT22;7777;52.254;9.618;2022-07-11T14:32:14;20.30;99.90
15355;DHT22;7777;52.254;9.618;2022-07-11T14:34:40;20.30;99.90
15355;DHT22;7777;52.254;9.618;2022-07-11T14:37:06;20.30;99.90
15355;DHT22;7777;52.254;9.618;2022-07-11T14:39:32;20.30;99.90
15355;DHT22;7777;52.254;9.618;2022-07-11T14:41:59;20.40;99.90
15355;DHT22;7777;52.254;9.618;2022-07-11T14:44:26;20.40;99.90
15355;DHT22;7777;52.254;9.618;2022-07-11T14:46:52;20.50;99.90
15355;DHT22;7777;52.254;9.618;2022-07-11T14:49:18;20.50;99.90
15355;DHT22;7777;52.254;9.618;2022-07-11T14:51:44;20.40;99.90
15355;DHT22;7777;52.254;9.618;2022-07-11T14:54:10;20.40;99.90
15355;DHT22;7777;52.254;9.618;2022-07-11T14:56:38;20.40;99.90
15355;DHT22;7777;52.254;9.618;2022-07-11T14:59:04;20.40;99.90
15355;DHT22;7777;52.254;9.618;2022-07-11T15:01:31;20.40;99.90
15355;DHT22;7777;52.254;9.618;2022-07-11T15:03:57;20.30;99.90
15355;DHT22;7777;52.254;9.618;2022-07-11T15:06:23;20.30;99.90
15355;DHT22;7777;52.254;9.618;2022-07-11T15:09:10;20.30;99.90
15355;DHT22;7777;52.254;9.618;2022-07-11T15:11:54;20.30;99.90
15355;DHT22;7777;52.254;9.618;2022-07-11T15:14:38;20.30;99.90
15355;DHT22;7777;52.254;9.618;2022-07-11T15:17:04;20.30;99.90
15355;DHT22;7777;52.254;9.618;2022-07-11T15:19:30;20.30;99.90
15355;DHT22;7777;52.254;9.618;2022-07-11T15:21:56;20.40;99.90
15355;DHT22;7777;52.254;9.618;2022-07-11T15:24:21;20.40;99.90
15355;DHT22;7777;52.254;9.618;2022-07-11T15:26:47;20.40;99.90
15355;DHT22;7777;52.254;9.618;2022-07-11T15:29:13;20.50;99.90
15355;DHT22;7777;52.254;9.618;2022-07-11T15:31:38;20.50;99.90
15355;DHT22;7777;52.254;9.618;2022-07-11T15:34:04;20.50;99.90
15355;DHT22;7777;52.254;9.618;2022-07-11T15:36:30;20.60;99.90
15355;DHT22;7777;52.254;9.618;2022-07-11T15:38:56;20.60;99.90
15355;DHT22;7777;52.254;9.618;2022-07-11T15:41:22;20.60;99.90
15355;DHT22;7777;52.254;9.618;2022-07-11T15:43:48;20.60;99.90
15355;DHT22;7777;52.254;9.618;2022-07-11T15:46:14;20.60;99.90
15355;DHT22;7777;52.254;9.618;2022-07-11T15:48:40;20.60;99.90
15355;DHT22;7777;52.254;9.618;2022-07-11T15:51:06;20.60;99.90
15355;DHT22;7777;52.254;9.618;2022-07-11T15:53:32;20.60;99.90
15355;DHT22;7777;52.254;9.618;2022-07-11T15:55:58;20.60;99.90
15355;DHT22;7777;52.254;9.618;2022-07-11T15:58:26;20.60;99.90
15355;DHT22;7777;52.254;9.618;2022-07-11T16:00:53;20.60;99.90
15355;DHT22;7777;52.254;9.618;2022-07-11T16:03:19;20.50;99.90
15355;DHT22;7777;52.254;9.618;2022-07-11T16:05:45;20.50;99.90
15355;DHT22;7777;52.254;9.618;2022-07-11T16:08:12;20.60;99.90
15355;DHT22;7777;52.254;9.618;2022-07-11T16:10:38;20.50;99.90
15355;DHT22;7777;52.254;9.618;2022-07-11T16:13:04;20.50;99.90
15355;DHT22;7777;52.254;9.618;2022-07-11T16:15:30;20.40;99.90
15355;DHT22;7777;52.254;9.618;2022-07-11T16:17:59;20.40;99.90
15355;DHT22;7777;52.254;9.618;2022-07-11T16:20:25;20.30;99.90
15355;DHT22;7777;52.254;9.618;2022-07-11T16:22:50;20.30;99.90
15355;DHT22;7777;52.254;9.618;2022-07-11T16:25:16;20.30;99.90
15355;DHT22;7777;52.254;9.618;2022-07-11T16:27:42;20.30;99.90